Terminal Aerodrome Forecast
Issued by NWS Pocatello, ID

Home | Current Version | Previous Version | Text Only | Print | Product List | Glossary On
Versions: 1 2 3 4 5 6 7 8 9 10 11 12 13 14 15 16
901
FTUS45 KPIH 301720
TAFPIH
TAF
KPIH 301720Z 3018/3118 VRB06KT P6SM VCSH SCT020 BKN040
      TEMPO 3018/3019 P6SM -SHRA SCT015 OVC040
     FM302100 24018G28KT 6SM -SHRA BR BKN010 OVC020
     FM310200 25011KT P6SM -SHRA SCT010 OVC020
     FM310600 36018G28KT P6SM -SHRA SCT007 OVC010=

USA.gov is the U.S. government's official web portal to all federal, state and local government web resources and services.